Time;durP1;ratioP1;P1;durP2;ratioP2;P2;SDS_P1;SDS_P2;PMS_P1;PMS_P2;Temp;Humidity;BMP_temperature;BMP_pressure;BME280_temperature;BME280_humidity;BME280_pressure;Samples;Min_cycle;Max_cycle;Signal;HPM_P1;HPM_P2
2021/01/11 00:01:39;;;;;;;20.48;15.30;;;-2.60;99.90;;;;;;6052806;23;20169;-82
2021/01/11 00:04:06;;;;;;;20.08;15.05;;;-2.60;99.90;;;;;;6052675;23;20169;-81
2021/01/11 00:06:37;;;;;;;21.55;15.77;;;-2.60;99.90;;;;;;6053100;23;20638;-83
2021/01/11 00:09:04;;;;;;;20.05;15.85;;;-2.60;99.90;;;;;;6053557;23;20203;-82
2021/01/11 00:11:32;;;;;;;20.35;15.27;;;-2.50;99.90;;;;;;6051913;23;20190;-83
2021/01/11 00:13:58;;;;;;;17.70;15.25;;;-2.60;99.90;;;;;;6053108;23;20178;-83
2021/01/11 00:16:25;;;;;;;21.15;14.52;;;-2.60;99.90;;;;;;6055188;23;20207;-83
2021/01/11 00:18:51;;;;;;;20.45;14.45;;;-2.60;99.90;;;;;;6055767;23;20390;-83
2021/01/11 00:21:17;;;;;;;23.98;17.02;;;-2.60;99.90;;;;;;6055427;23;20648;-82
2021/01/11 00:23:44;;;;;;;19.52;14.77;;;-2.60;99.90;;;;;;6053291;23;20189;-82
2021/01/11 00:26:11;;;;;;;21.63;15.05;;;-2.60;99.90;;;;;;6054692;23;20199;-83
2021/01/11 00:28:38;;;;;;;25.95;16.70;;;-2.70;99.90;;;;;;6056182;23;20204;-83
2021/01/11 00:31:05;;;;;;;20.40;15.20;;;-2.70;99.90;;;;;;6056158;23;20246;-82
2021/01/11 00:33:31;;;;;;;22.48;14.52;;;-2.70;99.90;;;;;;6055950;23;20182;-82
2021/01/11 00:35:57;;;;;;;24.80;15.43;;;-2.70;99.90;;;;;;6055205;23;20183;-83
2021/01/11 00:38:23;;;;;;;25.70;17.02;;;-2.70;99.90;;;;;;6056115;23;20210;-82
2021/01/11 00:40:50;;;;;;;18.42;16.27;;;-2.70;99.90;;;;;;6055033;23;20184;-83
2021/01/11 00:43:17;;;;;;;20.20;15.07;;;-2.80;99.90;;;;;;6053987;23;20182;-82
2021/01/11 00:45:43;;;;;;;21.60;15.98;;;-2.80;99.90;;;;;;6054851;23;20182;-82
2021/01/11 00:48:09;;;;;;;20.92;15.48;;;-2.80;99.90;;;;;;6054317;23;20201;-81
2021/01/11 00:50:36;;;;;;;20.33;14.35;;;-2.80;99.90;;;;;;6054609;23;20186;-82
2021/01/11 00:53:02;;;;;;;18.27;14.20;;;-2.90;99.90;;;;;;6053918;23;20185;-83
2021/01/11 00:55:28;;;;;;;21.05;13.82;;;-2.80;99.90;;;;;;6054978;23;20197;-83
2021/01/11 00:57:55;;;;;;;21.17;15.85;;;-2.90;99.90;;;;;;6053891;23;20212;-83
2021/01/11 01:00:22;;;;;;;20.50;15.55;;;-2.90;99.90;;;;;;6054469;23;20186;-83
2021/01/11 01:02:49;;;;;;;23.27;15.43;;;-2.90;99.90;;;;;;6053652;23;20184;-82
2021/01/11 01:05:15;;;;;;;22.95;14.98;;;-3.00;99.90;;;;;;6054615;23;20189;-83
2021/01/11 01:07:42;;;;;;;24.85;14.93;;;-3.10;99.90;;;;;;6055094;23;20209;-83
2021/01/11 01:10:09;;;;;;;23.67;15.55;;;-3.20;99.90;;;;;;6055537;23;20188;-82
2021/01/11 01:12:38;;;;;;;16.42;13.27;;;-3.20;99.90;;;;;;6054887;23;20183;-84
2021/01/11 01:15:07;;;;;;;16.60;14.43;;;-3.20;99.90;;;;;;6055683;23;20313;-84
2021/01/11 01:17:34;;;;;;;16.67;12.80;;;-3.30;99.90;;;;;;6055713;23;20207;-83
2021/01/11 01:20:01;;;;;;;20.52;13.90;;;-3.30;99.90;;;;;;6052579;23;20193;-83
2021/01/11 01:22:27;;;;;;;21.75;15.23;;;-3.20;99.90;;;;;;6054101;23;20183;-83
2021/01/11 01:24:53;;;;;;;18.45;14.93;;;-3.20;99.90;;;;;;6053789;23;20223;-83
2021/01/11 01:27:19;;;;;;;19.98;14.85;;;-3.20;99.90;;;;;;6053505;23;20536;-84
2021/01/11 01:29:45;;;;;;;22.90;16.23;;;-3.20;99.90;;;;;;6053372;23;20193;-84
2021/01/11 01:32:13;;;;;;;20.40;14.32;;;-3.20;99.90;;;;;;6054438;23;20378;-83
2021/01/11 01:34:40;;;;;;;20.77;16.85;;;-3.20;99.90;;;;;;6054058;23;20261;-84
2021/01/11 01:37:06;;;;;;;23.58;15.68;;;-3.20;99.90;;;;;;6053998;23;20253;-83
2021/01/11 01:39:32;;;;;;;21.65;15.43;;;-3.20;99.90;;;;;;6053771;23;20660;-84
2021/01/11 01:41:58;;;;;;;18.48;15.15;;;-3.20;99.90;;;;;;6053610;23;20186;-83
2021/01/11 01:44:24;;;;;;;21.60;15.32;;;-3.20;99.90;;;;;;6054403;23;20190;-83
2021/01/11 01:46:51;;;;;;;21.15;16.65;;;-3.30;99.90;;;;;;6053525;23;20785;-83
2021/01/11 01:49:18;;;;;;;25.85;15.88;;;-3.30;99.90;;;;;;6054594;23;20207;-83
2021/01/11 01:51:45;;;;;;;25.70;15.10;;;-3.30;99.90;;;;;;6054175;23;20186;-83
2021/01/11 01:54:12;;;;;;;19.90;15.02;;;-3.30;99.90;;;;;;6054339;23;20187;-82
2021/01/11 01:56:38;;;;;;;23.83;15.80;;;-3.40;99.90;;;;;;6054141;23;20210;-83
2021/01/11 01:59:05;;;;;;;20.65;16.27;;;-3.40;99.90;;;;;;6054775;23;20221;-83
2021/01/11 02:01:35;;;;;;;21.27;15.63;;;-3.40;99.90;;;;;;6053783;23;20239;-82
2021/01/11 02:04:01;;;;;;;25.17;15.35;;;-3.40;99.90;;;;;;6053022;23;20675;-83
2021/01/11 02:06:34;;;;;;;18.33;14.45;;;-3.50;99.90;;;;;;6055622;23;20182;-83
2021/01/11 02:09:04;;;;;;;25.83;15.57;;;-3.50;99.90;;;;;;6054181;23;20207;-83
2021/01/11 02:11:35;;;;;;;21.17;14.43;;;-3.40;99.90;;;;;;6054936;23;20192;-83
2021/01/11 02:14:13;;;;;;;22.92;14.80;;;-3.40;99.90;;;;;;6054739;23;20178;-82
2021/01/11 02:16:47;;;;;;;18.27;16.25;;;-3.40;99.90;;;;;;6054297;23;20189;-83
2021/01/11 02:19:45;;;;;;;21.02;15.32;;;-3.40;99.90;;;;;;6054107;23;20211;-82
2021/01/11 02:22:20;;;;;;;26.42;16.40;;;-3.40;99.90;;;;;;6024054;23;20205;-82
2021/01/11 02:25:20;;;;;;;18.98;14.82;;;-3.40;99.90;;;;;;6052749;23;20189;-83
2021/01/11 02:27:49;;;;;;;20.65;15.10;;;-3.50;99.90;;;;;;6052618;23;20203;-83
2021/01/11 02:30:30;;;;;;;24.33;16.70;;;-3.50;99.90;;;;;;6052392;23;20205;-82
2021/01/11 02:33:00;;;;;;;16.83;15.15;;;-3.50;99.90;;;;;;6051881;23;20166;-82
2021/01/11 02:35:28;;;;;;;21.50;14.05;;;-3.50;99.90;;;;;;6052759;23;20190;-82
2021/01/11 02:37:58;;;;;;;20.10;13.52;;;-3.50;99.90;;;;;;6051370;23;20209;-84
2021/01/11 02:40:24;;;;;;;16.25;14.40;;;-3.50;99.90;;;;;;6051876;23;20187;-81
2021/01/11 02:42:50;;;;;;;14.52;10.48;;;-3.60;99.90;;;;;;6053980;23;20243;-81
2021/01/11 02:45:17;;;;;;;12.48;11.27;;;-3.70;99.90;;;;;;6054910;23;20186;-85
2021/01/11 02:48:05;;;;;;;19.20;12.32;;;-3.70;99.90;;;;;;6053565;23;20681;-82
2021/01/11 02:50:39;;;;;;;22.70;11.32;;;-3.70;99.90;;;;;;6054420;23;20615;-84
2021/01/11 02:53:07;;;;;;;14.88;11.55;;;-3.80;99.90;;;;;;6050600;23;20170;-82
2021/01/11 02:55:52;;;;;;;18.73;12.52;;;-3.80;99.90;;;;;;6051009;23;20186;-82
2021/01/11 02:58:31;;;;;;;19.27;13.63;;;-3.70;99.90;;;;;;6049455;23;20206;-82
2021/01/11 03:01:02;;;;;;;12.20;9.20;;;-3.70;99.90;;;;;;6050532;23;20167;-82
2021/01/11 03:03:31;;;;;;;18.55;12.70;;;-3.80;99.90;;;;;;6049374;23;20172;-82
2021/01/11 03:05:57;;;;;;;14.50;10.77;;;-3.70;99.90;;;;;;6050603;23;20515;-82
2021/01/11 03:08:24;;;;;;;18.08;10.80;;;-3.70;99.90;;;;;;6049567;23;20206;-82
2021/01/11 03:10:51;;;;;;;16.50;12.07;;;-3.70;99.90;;;;;;6050019;23;20212;-82
2021/01/11 03:13:18;;;;;;;17.90;13.25;;;-3.70;99.90;;;;;;6049702;23;20651;-82
2021/01/11 03:15:44;;;;;;;13.52;11.13;;;-3.70;99.90;;;;;;6050510;23;20188;-82
2021/01/11 03:18:10;;;;;;;21.20;13.07;;;-3.70;99.90;;;;;;6049415;23;20273;-82
2021/01/11 03:20:38;;;;;;;16.50;12.75;;;-3.80;99.90;;;;;;6049656;23;20187;-81
2021/01/11 03:23:04;;;;;;;18.15;12.68;;;-3.80;99.90;;;;;;6049243;23;20185;-82
2021/01/11 03:25:30;;;;;;;14.90;11.27;;;-3.80;99.90;;;;;;6049726;23;20193;-82
2021/01/11 03:27:56;;;;;;;13.98;11.50;;;-3.80;99.90;;;;;;6049993;23;20200;-82
2021/01/11 03:30:23;;;;;;;13.68;11.32;;;-3.80;99.90;;;;;;6050632;23;20208;-82
2021/01/11 03:32:49;;;;;;;18.42;12.27;;;-3.80;99.90;;;;;;6049837;23;20188;-82
2021/01/11 03:35:16;;;;;;;18.17;12.75;;;-3.80;99.90;;;;;;6049909;23;20190;-81
2021/01/11 03:37:43;;;;;;;14.00;12.30;;;-3.90;99.90;;;;;;6050537;23;20217;-82
2021/01/11 03:40:10;;;;;;;18.50;13.13;;;-3.90;99.90;;;;;;6049615;23;20180;-81
2021/01/11 03:42:37;;;;;;;20.75;12.43;;;-3.90;99.90;;;;;;6049504;23;20649;-82
2021/01/11 03:45:04;;;;;;;15.88;12.77;;;-4.00;99.90;;;;;;6049841;23;20242;-82
2021/01/11 03:47:30;;;;;;;20.40;12.25;;;-4.00;99.90;;;;;;6048591;23;20215;-81
2021/01/11 03:49:58;;;;;;;15.50;10.02;;;-4.00;99.90;;;;;;6048181;23;20186;-82
2021/01/11 03:52:24;;;;;;;15.98;10.60;;;-4.00;99.90;;;;;;6049403;23;20182;-82
2021/01/11 03:54:51;;;;;;;13.23;10.25;;;-4.00;99.90;;;;;;6048992;23;20181;-82
2021/01/11 03:57:17;;;;;;;10.82;9.45;;;-4.00;99.90;;;;;;6049173;23;20198;-82
2021/01/11 03:59:44;;;;;;;15.77;11.75;;;-4.00;99.90;;;;;;6049211;23;20515;-82
2021/01/11 04:02:10;;;;;;;16.85;11.68;;;-4.00;99.90;;;;;;6048540;23;20522;-81
2021/01/11 04:04:36;;;;;;;16.85;11.73;;;-4.00;99.90;;;;;;6049939;23;20186;-81
2021/01/11 04:07:02;;;;;;;14.00;10.02;;;-4.00;99.90;;;;;;6050338;23;20185;-82
2021/01/11 04:09:29;;;;;;;13.85;11.07;;;-4.00;99.90;;;;;;6049692;23;20182;-82
2021/01/11 04:11:56;;;;;;;17.95;11.48;;;-4.00;99.90;;;;;;6049629;23;20204;-82
2021/01/11 04:14:22;;;;;;;18.05;11.85;;;-4.00;99.90;;;;;;6049136;23;20219;-82
2021/01/11 04:16:52;;;;;;;17.60;11.63;;;-4.00;99.90;;;;;;6049420;23;20205;-81
2021/01/11 04:19:18;;;;;;;20.27;14.15;;;-4.00;99.90;;;;;;6050233;23;20210;-82
2021/01/11 04:21:44;;;;;;;21.45;12.00;;;-4.00;99.90;;;;;;6048451;23;20185;-82
2021/01/11 04:24:11;;;;;;;15.02;10.63;;;-4.00;99.90;;;;;;6049149;23;20184;-82
2021/01/11 04:26:37;;;;;;;14.40;11.07;;;-4.00;99.90;;;;;;6049385;23;20174;-82
2021/01/11 04:29:04;;;;;;;16.92;11.20;;;-4.00;99.90;;;;;;6049161;23;20236;-82
2021/01/11 04:31:30;;;;;;;16.75;11.77;;;-4.00;99.90;;;;;;6049554;23;20647;-81
2021/01/11 04:33:56;;;;;;;12.90;10.70;;;-4.00;99.90;;;;;;6049371;23;20673;-81
2021/01/11 04:36:22;;;;;;;22.00;12.13;;;-4.00;99.90;;;;;;6048809;23;20193;-82
2021/01/11 04:38:49;;;;;;;13.75;10.85;;;-4.00;99.90;;;;;;6049578;23;20212;-82
2021/01/11 04:41:15;;;;;;;13.48;10.05;;;-4.00;99.90;;;;;;6048855;23;20182;-80
2021/01/11 04:43:45;;;;;;;11.85;9.70;;;-4.00;99.90;;;;;;6048111;23;20193;-82
2021/01/11 04:46:14;;;;;;;16.38;10.60;;;-4.00;99.90;;;;;;6067848;23;20220;-80
2021/01/11 04:48:41;;;;;;;12.10;9.77;;;-4.00;99.90;;;;;;6077750;23;20182;-80
2021/01/11 04:51:07;;;;;;;17.33;10.10;;;-4.00;99.90;;;;;;6075508;23;20186;-80
2021/01/11 04:53:35;;;;;;;14.95;11.10;;;-4.10;99.90;;;;;;6076151;23;20188;-80
2021/01/11 04:56:03;;;;;;;17.95;10.30;;;-4.10;99.90;;;;;;6077141;23;20212;-80
2021/01/11 04:58:53;;;;;;;14.73;11.25;;;-4.20;99.90;;;;;;6077361;23;20729;-80
2021/01/11 05:01:24;;;;;;;15.80;11.88;;;-4.20;99.90;;;;;;6076903;23;20224;-88
2021/01/11 05:03:51;;;;;;;16.17;11.63;;;-4.20;99.90;;;;;;6077840;23;20170;-80
2021/01/11 05:06:18;;;;;;;14.80;10.50;;;-4.20;99.90;;;;;;6078082;23;20201;-81
2021/01/11 05:08:45;;;;;;;17.85;11.52;;;-4.30;99.90;;;;;;6078606;23;20187;-81
2021/01/11 05:11:12;;;;;;;16.70;12.00;;;-4.20;99.90;;;;;;6078588;23;20195;-82
2021/01/11 05:13:38;;;;;;;17.20;14.10;;;-4.20;99.90;;;;;;6077782;23;20213;-80
2021/01/11 05:16:11;;;;;;;12.35;11.07;;;-4.20;99.90;;;;;;6078989;23;20205;-79
2021/01/11 05:18:38;;;;;;;15.95;10.13;;;-4.30;99.90;;;;;;6078588;23;20233;-82
2021/01/11 05:21:05;;;;;;;19.67;11.90;;;-4.30;99.90;;;;;;6077746;23;20185;-79
2021/01/11 05:23:36;;;;;;;17.98;10.73;;;-4.30;99.90;;;;;;6078247;23;20286;-82
2021/01/11 05:26:13;;;;;;;12.80;9.63;;;-4.30;99.90;;;;;;6078385;23;20205;-80
2021/01/11 05:28:39;;;;;;;17.75;11.32;;;-4.30;99.90;;;;;;6079058;23;20170;-83
2021/01/11 05:31:06;;;;;;;17.63;11.00;;;-4.30;99.90;;;;;;6081526;23;20185;-82
2021/01/11 05:33:32;;;;;;;14.77;10.50;;;-4.30;99.90;;;;;;6080608;23;20189;-80
2021/01/11 05:36:05;;;;;;;15.18;11.85;;;-4.30;99.90;;;;;;6080294;23;20205;-81
2021/01/11 05:38:36;;;;;;;19.02;12.32;;;-4.30;99.90;;;;;;6079888;23;20201;-81
2021/01/11 05:41:17;;;;;;;15.23;10.88;;;-4.30;99.90;;;;;;6079927;23;20225;-81
2021/01/11 05:43:44;;;;;;;18.92;13.15;;;-4.30;99.90;;;;;;6080005;23;20194;-80
2021/01/11 05:46:24;;;;;;;24.80;13.88;;;-4.30;99.90;;;;;;6079987;23;20264;-81
2021/01/11 05:48:58;;;;;;;16.35;13.35;;;-4.30;99.90;;;;;;6080681;23;20244;-81
2021/01/11 05:51:26;;;;;;;15.82;10.85;;;-4.30;99.90;;;;;;6080524;23;20188;-81
2021/01/11 05:53:52;;;;;;;17.85;11.32;;;-4.30;99.90;;;;;;6079959;23;20197;-82
2021/01/11 05:56:18;;;;;;;19.00;11.30;;;-4.40;99.90;;;;;;6080798;23;20230;-82
2021/01/11 05:59:05;;;;;;;14.45;10.60;;;-4.50;99.90;;;;;;6081386;23;20192;-82
2021/01/11 06:01:33;;;;;;;18.45;14.07;;;-4.60;99.90;;;;;;6082093;23;20165;-83
2021/01/11 06:03:59;;;;;;;18.65;11.48;;;-4.70;99.90;;;;;;6081055;23;20185;-82
2021/01/11 06:06:26;;;;;;;16.90;11.60;;;-4.70;99.90;;;;;;6080951;23;20201;-80
2021/01/11 06:08:53;;;;;;;13.20;10.00;;;-4.70;99.90;;;;;;6081454;23;20195;-81
2021/01/11 06:11:25;;;;;;;15.98;11.55;;;-4.60;99.90;;;;;;6081442;23;20186;-83
2021/01/11 06:13:52;;;;;;;22.77;13.90;;;-4.60;99.90;;;;;;6081285;23;20186;-80
2021/01/11 06:16:20;;;;;;;20.40;12.85;;;-4.60;99.90;;;;;;6080002;23;20205;-81
2021/01/11 06:18:48;;;;;;;16.67;13.02;;;-4.60;99.90;;;;;;6080483;23;20265;-81
2021/01/11 06:21:15;;;;;;;15.40;11.50;;;-4.60;99.90;;;;;;6081809;23;20203;-81
2021/01/11 06:23:48;;;;;;;19.75;12.60;;;-4.50;99.90;;;;;;6082825;23;20212;-80
2021/01/11 06:26:38;;;;;;;18.08;11.13;;;-4.50;99.90;;;;;;6082483;23;20205;-81
2021/01/11 06:29:28;;;;;;;15.65;12.20;;;-4.50;99.90;;;;;;6080837;23;20182;-81
2021/01/11 06:31:57;;;;;;;15.93;11.30;;;-4.40;99.90;;;;;;6081317;23;20169;-80
2021/01/11 06:34:37;;;;;;;15.10;13.30;;;-4.40;99.90;;;;;;6080922;23;20268;-80
2021/01/11 06:37:20;;;;;;;16.45;11.75;;;-4.40;99.90;;;;;;6081073;23;20205;-81
2021/01/11 06:39:51;;;;;;;14.38;11.32;;;-4.40;99.90;;;;;;6080409;23;20169;-83
2021/01/11 06:42:18;;;;;;;23.50;14.13;;;-4.40;99.90;;;;;;6080241;23;20169;-82
2021/01/11 06:44:49;;;;;;;20.55;13.43;;;-4.50;99.90;;;;;;6081809;23;20209;-81
2021/01/11 06:47:26;;;;;;;18.17;12.90;;;-4.50;99.90;;;;;;6082678;23;20163;-82
2021/01/11 06:50:03;;;;;;;18.67;13.00;;;-4.50;99.90;;;;;;6081960;23;20259;-85
2021/01/11 06:52:36;;;;;;;20.85;11.40;;;-4.40;99.90;;;;;;6080972;23;20165;-82
2021/01/11 06:55:11;;;;;;;19.58;13.77;;;-4.40;99.90;;;;;;6078887;23;20213;-82
2021/01/11 06:57:38;;;;;;;15.00;11.45;;;-4.40;99.90;;;;;;6080602;23;20207;-82
2021/01/11 07:00:08;;;;;;;17.33;13.50;;;-4.40;99.90;;;;;;6081939;23;20213;-81
2021/01/11 07:02:41;;;;;;;19.20;12.88;;;-4.40;99.90;;;;;;6080681;23;20193;-80
2021/01/11 07:05:28;;;;;;;20.08;14.52;;;-4.40;99.90;;;;;;6079752;23;20206;-82
2021/01/11 07:08:01;;;;;;;16.48;12.27;;;-4.40;99.90;;;;;;6080276;23;20188;-81
2021/01/11 07:10:28;;;;;;;25.58;15.65;;;-4.40;99.90;;;;;;6079844;23;20167;-82
2021/01/11 07:13:27;;;;;;;17.58;12.30;;;-4.40;99.90;;;;;;6079811;23;20186;-81
2021/01/11 07:16:13;;;;;;;22.73;15.60;;;-4.30;99.90;;;;;;6080402;23;20209;-81
2021/01/11 07:18:56;;;;;;;17.73;11.95;;;-4.40;99.90;;;;;;6079785;23;20201;-82
2021/01/11 07:21:26;;;;;;;22.63;14.55;;;-4.40;99.90;;;;;;6078633;23;20196;-81
2021/01/11 07:23:55;;;;;;;17.80;13.13;;;-4.40;99.90;;;;;;6076269;23;20171;-81
2021/01/11 07:26:23;;;;;;;19.52;14.93;;;-4.40;99.90;;;;;;6075488;23;20205;-85
2021/01/11 07:28:55;;;;;;;21.75;14.07;;;-4.30;99.90;;;;;;6073270;23;20187;-81
2021/01/11 07:31:24;;;;;;;22.13;12.90;;;-4.30;99.90;;;;;;6074493;23;20260;-83
2021/01/11 07:34:01;;;;;;;19.45;12.35;;;-4.30;99.90;;;;;;6073910;23;20182;-83
2021/01/11 07:36:29;;;;;;;25.33;14.45;;;-4.30;99.90;;;;;;6075744;23;20205;-81
2021/01/11 07:39:14;;;;;;;17.25;10.90;;;-4.20;99.90;;;;;;6074337;23;20183;-81
2021/01/11 07:41:43;;;;;;;20.95;14.90;;;-4.20;99.90;;;;;;6074701;23;20186;-86
2021/01/11 07:44:18;;;;;;;24.17;13.80;;;-4.20;99.90;;;;;;6074263;23;20683;-82
2021/01/11 07:46:44;;;;;;;21.48;15.45;;;-4.10;99.90;;;;;;6073363;23;20205;-83
2021/01/11 07:49:12;;;;;;;17.95;12.10;;;-4.10;99.90;;;;;;6072702;23;20180;-82
2021/01/11 07:51:45;;;;;;;19.70;13.88;;;-4.00;99.90;;;;;;6073049;23;20240;-83
2021/01/11 07:54:18;;;;;;;16.98;13.38;;;-4.00;99.90;;;;;;6072946;23;20189;-82
2021/01/11 07:56:45;;;;;;;19.67;14.70;;;-3.90;99.90;;;;;;6072861;23;20212;-82
2021/01/11 07:59:12;;;;;;;20.92;14.73;;;-3.90;99.90;;;;;;6072486;23;20187;-82
2021/01/11 08:01:39;;;;;;;21.27;14.85;;;-3.80;99.90;;;;;;6072316;23;20204;-83
2021/01/11 08:04:06;;;;;;;20.80;14.05;;;-3.80;99.90;;;;;;6070732;23;20645;-82
2021/01/11 08:06:44;;;;;;;23.90;12.93;;;-3.80;99.90;;;;;;6072446;23;20205;-81
2021/01/11 08:09:11;;;;;;;21.52;15.05;;;-3.70;99.90;;;;;;6071337;23;20202;-86
2021/01/11 08:11:39;;;;;;;20.85;13.32;;;-3.70;99.90;;;;;;6067583;23;20187;-86
2021/01/11 08:14:08;;;;;;;25.35;14.10;;;-3.60;99.90;;;;;;6069946;23;20183;-85
2021/01/11 08:16:38;;;;;;;22.60;15.38;;;-3.50;99.90;;;;;;6069935;23;20222;-86
2021/01/11 08:19:06;;;;;;;22.02;14.18;;;-3.50;99.90;;;;;;6070291;23;20515;-85
2021/01/11 08:21:32;;;;;;;25.40;14.07;;;-3.40;99.90;;;;;;6070036;23;20185;-86
2021/01/11 08:24:04;;;;;;;22.55;13.68;;;-3.30;99.90;;;;;;6068982;23;20192;-85
2021/01/11 08:26:33;;;;;;;29.08;14.95;;;-3.30;99.90;;;;;;6066615;23;20676;-86
2021/01/11 08:29:09;;;;;;;18.58;14.68;;;-3.20;99.90;;;;;;6066140;23;20503;-86
2021/01/11 08:31:38;;;;;;;21.40;13.60;;;-3.20;99.90;;;;;;6066480;23;20194;-86
2021/01/11 08:34:06;;;;;;;18.80;14.10;;;-3.10;99.90;;;;;;6066092;23;20177;-87
2021/01/11 08:36:36;;;;;;;22.50;11.70;;;-3.10;99.90;;;;;;6067177;23;20202;-88
2021/01/11 08:39:11;;;;;;;23.70;16.40;;;-3.00;99.90;;;;;;6067812;23;20292;-86
2021/01/11 08:41:40;;;;;;;21.90;15.45;;;-3.00;99.90;;;;;;6067932;23;20186;-86
2021/01/11 08:44:28;;;;;;;19.35;14.48;;;-3.00;99.90;;;;;;6069347;23;20184;-86
2021/01/11 08:47:05;;;;;;;20.70;14.23;;;-2.90;99.90;;;;;;6068585;23;20667;-86
2021/01/11 08:49:32;;;;;;;16.27;11.70;;;-2.90;99.90;;;;;;6067799;23;20433;-85
2021/01/11 08:52:09;;;;;;;19.35;13.07;;;-2.90;99.90;;;;;;6068328;23;20593;-85
2021/01/11 08:55:07;;;;;;;17.48;12.93;;;-2.90;99.90;;;;;;6067872;23;20184;-89
2021/01/11 08:57:34;;;;;;;15.75;13.25;;;-2.90;99.90;;;;;;6068395;23;20183;-87
2021/01/11 09:00:12;;;;;;;21.42;13.65;;;-2.90;99.90;;;;;;6068337;23;20246;-87
2021/01/11 09:02:49;;;;;;;14.40;12.52;;;-2.80;99.90;;;;;;6065929;23;20250;-86
2021/01/11 09:05:17;;;;;;;17.73;12.73;;;-2.70;99.90;;;;;;6072405;23;20242;-85
2021/01/11 09:07:44;;;;;;;19.10;12.85;;;-2.70;99.90;;;;;;6072071;23;20240;-87
2021/01/11 09:10:30;;;;;;;20.02;13.70;;;-2.60;99.90;;;;;;6073660;23;20210;-86
2021/01/11 09:13:26;;;;;;;24.88;14.27;;;-2.50;99.90;;;;;;6068898;23;20246;-88
2021/01/11 09:15:53;;;;;;;19.10;12.07;;;-2.60;99.90;;;;;;6069271;23;20199;-87
2021/01/11 09:18:19;;;;;;;12.13;10.13;;;-2.60;99.90;;;;;;6072495;23;20213;-85
2021/01/11 09:20:46;;;;;;;14.68;12.38;;;-2.50;99.90;;;;;;6073195;23;20496;-86
2021/01/11 09:23:14;;;;;;;21.45;13.98;;;-2.50;99.90;;;;;;6071335;23;20178;-86
2021/01/11 09:25:40;;;;;;;19.23;12.40;;;-2.40;99.90;;;;;;6071268;23;20533;-86
2021/01/11 09:28:08;;;;;;;16.13;12.40;;;-2.40;99.90;;;;;;6070083;23;20184;-86
2021/01/11 09:30:35;;;;;;;17.52;12.27;;;-2.40;99.90;;;;;;6070346;23;20190;-87
2021/01/11 09:33:05;;;;;;;15.25;11.85;;;-2.30;99.90;;;;;;6069857;23;20500;-86
2021/01/11 09:35:32;;;;;;;16.70;11.85;;;-2.20;99.90;;;;;;6068043;23;20196;-86
2021/01/11 09:37:58;;;;;;;16.17;13.07;;;-2.10;99.90;;;;;;6071942;23;20255;-86
2021/01/11 09:40:25;;;;;;;16.42;11.45;;;-2.10;99.90;;;;;;6072970;23;20183;-86
2021/01/11 09:42:53;;;;;;;16.92;12.30;;;-2.10;99.90;;;;;;6070502;23;20266;-86
2021/01/11 09:45:21;;;;;;;18.38;13.02;;;-2.10;99.90;;;;;;6069907;23;20724;-86
2021/01/11 09:47:47;;;;;;;17.83;11.80;;;-2.00;99.90;;;;;;6070963;23;20564;-85
2021/01/11 09:50:17;;;;;;;16.48;11.57;;;-1.90;99.90;;;;;;6070050;23;20256;-86
2021/01/11 09:52:43;;;;;;;19.95;12.52;;;-1.80;99.90;;;;;;6068163;23;20197;-86
2021/01/11 09:55:11;;;;;;;13.13;11.30;;;-1.70;99.90;;;;;;6069307;23;20206;-86
2021/01/11 09:57:40;;;;;;;18.05;12.57;;;-1.70;99.90;;;;;;6066977;23;20202;-87
2021/01/11 10:00:09;;;;;;;15.60;12.13;;;-1.70;99.90;;;;;;6068314;23;20184;-86
2021/01/11 10:02:36;;;;;;;15.55;11.43;;;-1.60;99.90;;;;;;6067122;23;20277;-87
2021/01/11 10:05:03;;;;;;;22.38;11.80;;;-1.60;99.90;;;;;;6066533;23;20204;-87
2021/01/11 10:07:30;;;;;;;22.45;13.38;;;-1.50;99.90;;;;;;6068771;23;20182;-85
2021/01/11 10:09:56;;;;;;;14.05;10.50;;;-1.50;99.90;;;;;;6069092;23;20184;-86
2021/01/11 10:12:27;;;;;;;13.13;11.18;;;-1.40;99.90;;;;;;6066774;23;20533;-87
2021/01/11 10:14:55;;;;;;;17.08;12.93;;;-1.30;99.90;;;;;;6066446;23;20223;-87
2021/01/11 10:17:22;;;;;;;15.57;11.02;;;-1.30;99.90;;;;;;6065770;23;20196;-87
2021/01/11 10:19:52;;;;;;;15.90;10.95;;;-1.30;99.90;;;;;;6065804;23;20248;-87
2021/01/11 10:22:18;;;;;;;16.52;13.10;;;-1.20;99.90;;;;;;6070176;23;20193;-84
2021/01/11 10:24:48;;;;;;;16.98;11.57;;;-1.20;99.90;;;;;;6070620;23;20201;-85
2021/01/11 10:27:14;;;;;;;19.08;12.45;;;-1.00;99.90;;;;;;6071001;23;20181;-85
2021/01/11 10:30:09;;;;;;;;;;;;;;;;;;;;;
2021/01/11 10:33:05;;;;;;;16.20;12.05;;;-0.70;99.90;;;;;;6026339;23;20182;-87
2021/01/11 10:35:33;;;;;;;16.58;11.00;;;-0.50;99.90;;;;;;5895398;24;20239;-87
2021/01/11 10:37:59;;;;;;;13.82;11.23;;;-0.40;99.90;;;;;;5990873;23;20212;-86
2021/01/11 10:40:26;;;;;;;16.88;11.45;;;-0.20;99.90;;;;;;6068437;23;20181;-86
2021/01/11 10:42:52;;;;;;;16.63;11.50;;;-0.10;99.90;;;;;;6069555;23;20196;-85
2021/01/11 10:45:19;;;;;;;18.30;13.32;;;0.00;99.90;;;;;;6070302;23;20210;-85
2021/01/11 10:47:46;;;;;;;17.80;11.75;;;0.10;99.90;;;;;;6069620;23;20248;-86
2021/01/11 10:50:16;;;;;;;15.80;11.25;;;0.20;99.90;;;;;;6066664;23;20173;-86
2021/01/11 10:52:43;;;;;;;16.40;13.70;;;0.40;99.90;;;;;;6070275;23;20207;-87
2021/01/11 10:55:10;;;;;;;17.08;11.25;;;0.70;99.90;;;;;;6066503;23;20216;-86
2021/01/11 10:57:37;;;;;;;14.00;11.70;;;1.20;99.90;;;;;;6066084;23;20201;-88
2021/01/11 11:03:12;;;;;;;13.25;9.35;;;2.70;99.90;;;;;;6066437;23;20165;-89
2021/01/11 11:05:40;;;;;;;13.13;11.40;;;3.60;99.90;;;;;;6071215;23;20218;-89
2021/01/11 11:08:06;;;;;;;12.35;9.77;;;4.30;97.40;;;;;;6065561;23;20186;-86
2021/01/11 11:10:33;;;;;;;13.20;11.23;;;4.80;94.30;;;;;;6066343;23;20716;-87
2021/01/11 11:13:06;;;;;;;11.32;9.65;;;5.00;92.20;;;;;;6066242;23;20182;-88
2021/01/11 11:15:32;;;;;;;14.48;11.23;;;5.20;91.70;;;;;;6066568;23;20282;-86
2021/01/11 11:18:03;;;;;;;10.85;9.18;;;5.60;91.20;;;;;;6066689;23;20203;-89
2021/01/11 11:20:29;;;;;;;11.65;10.45;;;5.90;89.70;;;;;;6066130;23;20176;-88
2021/01/11 11:22:56;;;;;;;13.85;10.77;;;5.80;86.50;;;;;;6066057;23;20517;-87
2021/01/11 11:25:22;;;;;;;11.18;10.05;;;5.70;85.10;;;;;;6066192;23;20206;-86
2021/01/11 11:27:48;;;;;;;11.75;9.82;;;5.60;86.00;;;;;;6065877;23;20180;-87
2021/01/11 11:30:17;;;;;;;12.45;9.32;;;5.60;85.70;;;;;;6111223;23;20218;-85
2021/01/11 11:32:49;;;;;;;10.25;8.80;;;6.10;85.70;;;;;;6128480;23;20180;-84
2021/01/11 11:35:58;;;;;;;;;;;;;;;;;;;;;
2021/01/11 11:38:54;;;;;;;11.55;9.15;;;7.60;82.30;;;;;;6127335;23;20287;-85
2021/01/11 11:41:20;;;;;;;12.00;9.50;;;8.00;79.20;;;;;;6098834;23;20612;-84
2021/01/11 11:43:48;;;;;;;10.68;9.25;;;8.20;75.30;;;;;;6099771;23;20177;-85
2021/01/11 11:46:21;;;;;;;12.20;9.25;;;8.10;73.90;;;;;;6102573;23;20557;-85
2021/01/11 11:48:47;;;;;;;15.48;10.82;;;8.10;73.90;;;;;;6102239;23;20176;-85
2021/01/11 11:51:15;;;;;;;10.30;9.25;;;8.20;74.10;;;;;;6101024;23;20231;-84
2021/01/11 11:53:41;;;;;;;11.73;10.57;;;8.80;75.90;;;;;;6098541;23;20185;-85
2021/01/11 11:56:12;;;;;;;13.30;11.98;;;9.80;72.60;;;;;;6098853;23;20262;-85
2021/01/11 11:58:38;;;;;;;13.15;11.32;;;10.10;67.80;;;;;;6099054;23;20238;-85
2021/01/11 12:01:05;;;;;;;13.32;10.45;;;10.20;66.40;;;;;;6099615;23;20312;-85
2021/01/11 12:03:34;;;;;;;10.70;9.60;;;10.10;65.10;;;;;;6098909;23;20640;-85
2021/01/11 12:06:00;;;;;;;14.57;12.23;;;10.20;64.60;;;;;;6099836;23;20187;-85
2021/01/11 12:08:26;;;;;;;13.40;11.65;;;10.00;62.80;;;;;;6100353;23;20514;-84
2021/01/11 12:10:53;;;;;;;11.48;10.13;;;10.10;64.00;;;;;;6101775;23;20287;-85
2021/01/11 12:13:19;;;;;;;12.68;10.35;;;10.60;62.60;;;;;;6102274;23;20185;-84
2021/01/11 12:15:47;;;;;;;10.90;9.77;;;10.70;61.60;;;;;;6102392;23;20697;-84
2021/01/11 12:18:13;;;;;;;12.80;10.40;;;11.00;60.70;;;;;;6102912;23;20284;-85
2021/01/11 12:20:40;;;;;;;12.75;11.45;;;11.40;59.00;;;;;;6108426;23;20202;-85
2021/01/11 12:23:07;;;;;;;11.43;10.27;;;11.70;59.80;;;;;;6107691;23;20203;-85
2021/01/11 12:25:36;;;;;;;12.50;9.27;;;12.30;58.10;;;;;;6101927;23;20431;-85
2021/01/11 12:28:04;;;;;;;14.77;12.83;;;13.10;57.80;;;;;;6101215;23;20423;-85
2021/01/11 12:30:33;;;;;;;11.70;10.50;;;13.90;54.50;;;;;;6101165;23;20451;-85
2021/01/11 12:33:01;;;;;;;12.40;11.13;;;14.60;53.30;;;;;;6102382;23;20508;-86
2021/01/11 12:35:57;;;;;;;12.07;10.87;;;15.30;52.00;;;;;;6104222;23;20448;-86
2021/01/11 12:38:27;;;;;;;10.70;9.60;;;15.90;50.00;;;;;;6098507;23;20421;-86
2021/01/11 12:40:53;;;;;;;13.10;11.90;;;15.80;47.20;;;;;;6102531;23;20752;-86
2021/01/11 12:44:02;;;;;;;11.47;10.30;;;15.90;46.70;;;;;;6102174;23;20421;-87
2021/01/11 12:46:40;;;;;;;;;;;;;;;;;;;;;
2021/01/11 12:49:30;;;;;;;;;;;;;;;;;;;;;
2021/01/11 12:52:29;;;;;;;;;;;;;;;;;;;;;